createdAt,value
2022-09-04T00:01:45.213Z,6.10
2022-09-04T00:04:17.677Z,5.80
2022-09-04T00:06:50.300Z,6.30
2022-09-04T00:09:20.094Z,6.57
2022-09-04T00:11:51.060Z,5.87
2022-09-04T00:14:21.121Z,6.40
2022-09-04T00:16:52.498Z,6.43
2022-09-04T00:19:25.112Z,6.83
2022-09-04T00:21:54.625Z,6.83
2022-09-04T00:24:25.264Z,7.13
2022-09-04T00:26:58.232Z,7.00
2022-09-04T00:29:31.925Z,7.20
2022-09-04T00:32:03.397Z,7.10
2022-09-04T00:34:49.719Z,7.50
2022-09-04T00:37:21.478Z,7.40
2022-09-04T00:39:51.743Z,8.17
2022-09-04T00:42:36.562Z,7.63
2022-09-04T00:45:17.657Z,8.20
2022-09-04T00:48:05.291Z,8.00
2022-09-04T00:50:46.601Z,7.67
2022-09-04T00:53:41.980Z,8.00
2022-09-04T00:56:28.153Z,8.20
2022-09-04T00:59:05.025Z,8.40
2022-09-04T01:01:33.387Z,8.60
2022-09-04T01:04:18.661Z,8.17
2022-09-04T01:06:51.845Z,8.47
2022-09-04T01:09:35.026Z,8.53
2022-09-04T01:12:09.998Z,9.23
2022-09-04T01:14:44.359Z,9.20
2022-09-04T01:17:20.257Z,9.00
2022-09-04T01:19:52.776Z,8.50
2022-09-04T01:22:32.854Z,9.03
2022-09-04T01:25:05.904Z,9.30
2022-09-04T01:27:38.506Z,8.83
2022-09-04T01:30:10.659Z,10.00
2022-09-04T01:32:45.426Z,9.57
2022-09-04T01:35:23.075Z,10.60
2022-09-04T01:37:58.662Z,10.67
2022-09-04T01:40:36.149Z,10.00
2022-09-04T01:43:07.981Z,9.90
2022-09-04T01:45:47.340Z,11.17
2022-09-04T01:48:18.483Z,10.80
2022-09-04T01:50:48.432Z,10.27
2022-09-04T01:53:19.507Z,10.93
2022-09-04T01:55:51.960Z,11.47
2022-09-04T01:58:26.714Z,11.30
2022-09-04T02:00:59.369Z,12.30
2022-09-04T02:03:31.740Z,11.47
2022-09-04T02:06:04.157Z,11.87
2022-09-04T02:08:41.219Z,12.87
2022-09-04T02:11:10.730Z,11.90
2022-09-04T02:13:46.078Z,13.20
2022-09-04T02:16:20.076Z,12.57
2022-09-04T02:18:53.110Z,14.00
2022-09-04T02:21:24.958Z,12.87
2022-09-04T02:23:57.561Z,12.83
2022-09-04T02:26:32.190Z,13.13
2022-09-04T02:29:04.201Z,12.43
2022-09-04T02:31:39.039Z,12.67
2022-09-04T02:34:10.105Z,12.80
2022-09-04T02:36:44.694Z,13.87
2022-09-04T02:39:19.244Z,13.73
2022-09-04T02:41:52.027Z,14.30
2022-09-04T02:44:34.689Z,13.17
2022-09-04T02:47:07.899Z,14.07
2022-09-04T02:49:38.997Z,14.70
2022-09-04T02:52:15.306Z,14.03
2022-09-04T02:55:02.030Z,13.70
2022-09-04T02:57:40.662Z,14.03
2022-09-04T03:00:18.322Z,14.73
2022-09-04T03:02:52.890Z,14.73
2022-09-04T03:05:22.432Z,14.60
2022-09-04T03:07:57.681Z,14.40
2022-09-04T03:10:28.153Z,15.07
2022-09-04T03:12:57.670Z,15.57
2022-09-04T03:15:29.184Z,15.67
2022-09-04T03:18:02.655Z,16.40
2022-09-04T03:20:33.074Z,16.57
2022-09-04T03:23:04.819Z,15.30
2022-09-04T03:25:52.061Z,15.27
2022-09-04T03:28:26.509Z,16.63
2022-09-04T03:30:56.399Z,16.43
2022-09-04T03:33:27.880Z,15.33
2022-09-04T03:35:59.716Z,16.43
2022-09-04T03:38:31.505Z,16.17
2022-09-04T03:41:05.320Z,16.03
2022-09-04T03:43:50.552Z,16.30
2022-09-04T03:46:26.605Z,15.60
2022-09-04T03:49:16.475Z,15.37
2022-09-04T03:51:51.812Z,15.20
2022-09-04T03:54:28.754Z,15.67
2022-09-04T03:57:13.402Z,15.60
2022-09-04T03:59:50.118Z,16.20
2022-09-04T04:02:22.857Z,16.33
2022-09-04T04:05:16.273Z,16.63
2022-09-04T04:07:48.783Z,16.23
2022-09-04T04:10:31.215Z,16.70
2022-09-04T04:13:13.515Z,16.70
2022-09-04T04:15:48.302Z,15.57
2022-09-04T04:18:43.667Z,17.80
2022-09-04T04:21:14.942Z,16.40
2022-09-04T04:24:12.498Z,16.60
2022-09-04T04:26:51.648Z,17.30
2022-09-04T04:29:53.048Z,17.90
2022-09-04T04:32:28.979Z,17.93
2022-09-04T04:35:08.893Z,17.00
2022-09-04T04:37:44.887Z,18.77
2022-09-04T04:40:17.623Z,18.03
2022-09-04T04:42:49.096Z,17.67
2022-09-04T04:45:39.446Z,17.87
2022-09-04T04:48:55.428Z,19.10
2022-09-04T04:51:34.190Z,18.70
2022-09-04T04:54:09.989Z,19.33
2022-09-04T04:56:46.023Z,18.23
2022-09-04T04:59:23.482Z,20.07
2022-09-04T05:01:57.477Z,19.47
2022-09-04T05:04:31.760Z,20.67
2022-09-04T05:07:03.634Z,19.97
2022-09-04T05:09:38.123Z,20.07
2022-09-04T05:12:10.591Z,20.43
2022-09-04T05:14:42.431Z,20.77
2022-09-04T05:17:19.137Z,20.67
2022-09-04T05:19:53.478Z,20.93
2022-09-04T05:22:26.141Z,20.60
2022-09-04T05:25:01.299Z,21.00
2022-09-04T05:27:49.826Z,20.43
2022-09-04T05:30:19.762Z,20.27
2022-09-04T05:32:54.802Z,21.70
2022-09-04T05:35:26.425Z,22.10
2022-09-04T05:38:09.977Z,22.33
2022-09-04T05:40:47.745Z,22.23
2022-09-04T05:43:24.618Z,21.07
2022-09-04T05:45:59.369Z,22.03
2022-09-04T05:48:44.232Z,22.37
2022-09-04T05:51:34.851Z,22.23
2022-09-04T05:54:16.803Z,21.67
2022-09-04T05:56:56.951Z,22.53
2022-09-04T05:59:35.857Z,23.07
2022-09-04T06:02:12.248Z,23.00
2022-09-04T06:04:57.553Z,22.43
2022-09-04T06:07:29.354Z,21.67
2022-09-04T06:10:04.237Z,22.70
2022-09-04T06:12:51.902Z,21.70
2022-09-04T06:15:26.332Z,21.97
2022-09-04T06:18:01.843Z,22.57
2022-09-04T06:20:40.401Z,21.23
2022-09-04T06:23:27.042Z,21.93
2022-09-04T06:26:13.122Z,22.20
2022-09-04T06:29:06.747Z,22.40
2022-09-04T06:32:12.987Z,21.87
2022-09-04T06:35:06.314Z,23.10
2022-09-04T06:37:38.453Z,23.30
2022-09-04T06:40:19.075Z,23.30
2022-09-04T06:42:59.277Z,22.53
2022-09-04T06:45:32.238Z,22.27
2022-09-04T06:48:12.139Z,22.97
2022-09-04T06:50:47.300Z,22.90
2022-09-04T06:53:31.787Z,22.93
2022-09-04T06:56:10.290Z,23.23
2022-09-04T06:59:01.372Z,21.30
2022-09-04T07:01:34.949Z,21.83
2022-09-04T07:04:07.919Z,21.77
2022-09-04T07:06:48.653Z,22.83
2022-09-04T07:09:18.391Z,21.47
2022-09-04T07:11:58.108Z,22.73
2022-09-04T07:14:38.811Z,22.07
2022-09-04T07:17:09.889Z,22.23
2022-09-04T07:20:03.792Z,21.97
2022-09-04T07:23:02.762Z,22.37
2022-09-04T07:25:38.488Z,21.47
2022-09-04T07:28:19.590Z,21.37
2022-09-04T07:30:51.433Z,21.07
2022-09-04T07:33:30.707Z,21.63
2022-09-04T07:36:04.568Z,22.03
2022-09-04T07:38:37.091Z,20.90
2022-09-04T07:41:10.582Z,20.30
2022-09-04T07:43:54.986Z,21.60
2022-09-04T07:46:33.523Z,19.80
2022-09-04T07:49:17.474Z,20.80
2022-09-04T07:51:54.442Z,20.50
2022-09-04T07:54:38.934Z,21.30
2022-09-04T07:57:15.869Z,20.93
2022-09-04T08:00:15.732Z,21.13
2022-09-04T08:02:57.339Z,19.70
2022-09-04T08:05:43.015Z,20.73
2022-09-04T08:08:38.839Z,21.70
2022-09-04T08:11:17.527Z,21.60
2022-09-04T08:14:09.635Z,21.00
2022-09-04T08:16:40.943Z,21.13
2022-09-04T08:19:25.333Z,21.33
2022-09-04T08:21:58.065Z,22.23
2022-09-04T08:24:54.670Z,22.73
2022-09-04T08:27:35.366Z,21.20
2022-09-04T08:30:17.131Z,21.67
2022-09-04T08:33:22.127Z,22.27
2022-09-04T08:35:59.808Z,22.10
2022-09-04T08:38:36.693Z,21.33
2022-09-04T08:41:36.200Z,22.97
2022-09-04T08:44:31.485Z,23.67
2022-09-04T08:47:32.242Z,21.37
2022-09-04T08:50:16.168Z,21.90
2022-09-04T08:53:15.557Z,22.27
2022-09-04T08:55:51.596Z,20.97
2022-09-04T08:58:49.259Z,22.43
2022-09-04T09:01:50.049Z,22.00
2022-09-04T09:05:12.499Z,23.30
2022-09-04T09:08:04.923Z,22.60
2022-09-04T09:11:03.453Z,24.43
2022-09-04T09:14:07.499Z,23.20
2022-09-04T09:16:44.303Z,24.27
2022-09-04T09:19:27.975Z,24.03
2022-09-04T09:22:12.659Z,23.40
2022-09-04T09:25:21.268Z,23.40
2022-09-04T09:28:20.935Z,24.20
2022-09-04T09:31:23.386Z,23.97
2022-09-04T09:34:23.958Z,22.83
2022-09-04T09:37:26.719Z,23.17
2022-09-04T09:40:36.974Z,22.27
2022-09-04T09:43:27.176Z,21.88
2022-09-04T09:46:27.582Z,21.52
2022-09-04T09:49:14.842Z,22.73
2022-09-04T09:52:13.193Z,22.73
2022-09-04T09:55:09.649Z,22.60
2022-09-04T09:58:22.024Z,22.77
2022-09-04T10:01:03.428Z,21.73
2022-09-04T10:04:12.542Z,19.45
2022-09-04T10:07:05.573Z,17.63
2022-09-04T10:10:02.792Z,17.45
2022-09-04T10:13:12.981Z,20.52
2022-09-04T10:16:17.476Z,19.83
2022-09-04T10:19:16.886Z,17.40
2022-09-04T10:22:20.258Z,17.15
2022-09-04T10:25:16.712Z,19.08
2022-09-04T10:28:26.681Z,17.38
2022-09-04T10:31:36.878Z,16.25
2022-09-04T10:34:29.981Z,18.08
2022-09-04T10:37:06.127Z,16.52
2022-09-04T10:39:56.843Z,16.42
2022-09-04T10:43:02.954Z,13.32
2022-09-04T10:45:56.385Z,14.38
2022-09-04T10:49:03.027Z,14.00
2022-09-04T10:52:10.157Z,13.10
2022-09-04T10:55:18.826Z,14.32
2022-09-04T10:58:27.792Z,13.68
2022-09-04T11:01:16.273Z,15.90
2022-09-04T11:03:57.786Z,15.48
2022-09-04T11:06:53.873Z,14.20
2022-09-04T11:09:40.456Z,12.77
2022-09-04T11:12:42.383Z,12.07
2022-09-04T11:15:28.034Z,11.63
2022-09-04T11:18:37.963Z,11.38
2022-09-04T11:21:40.206Z,10.77
2022-09-04T11:25:15.036Z,10.60
2022-09-04T11:31:11.742Z,10.50
2022-09-04T11:34:22.881Z,10.18
2022-09-04T11:37:11.785Z,8.45
2022-09-04T11:40:10.312Z,7.90
2022-09-04T11:42:52.785Z,7.28
2022-09-04T11:45:48.245Z,6.63
2022-09-04T11:48:55.261Z,7.03
2022-09-04T11:51:54.801Z,5.90
2022-09-04T11:54:46.904Z,4.53
2022-09-04T11:57:23.238Z,6.65
2022-09-04T12:00:25.296Z,7.32
2022-09-04T12:03:23.678Z,7.03
2022-09-04T12:06:15.324Z,6.47
2022-09-04T12:09:31.103Z,6.15
2022-09-04T12:12:17.660Z,6.10
2022-09-04T12:15:11.524Z,5.57
2022-09-04T12:18:36.357Z,6.35
2022-09-04T12:21:25.470Z,7.50
2022-09-04T12:24:31.357Z,6.25
2022-09-04T12:27:22.884Z,3.55
2022-09-04T12:30:20.636Z,3.95
2022-09-04T12:33:18.663Z,4.47
2022-09-04T12:36:20.568Z,4.72
2022-09-04T12:39:11.866Z,3.58
2022-09-04T12:42:02.302Z,4.78
2022-09-04T12:44:53.593Z,4.50
2022-09-04T12:47:33.210Z,3.30
2022-09-04T12:50:20.137Z,2.80
2022-09-04T12:53:10.880Z,3.35
2022-09-04T12:55:42.807Z,2.60
2022-09-04T12:58:17.788Z,2.63
2022-09-04T13:00:50.868Z,3.08
2022-09-04T13:03:24.415Z,3.00
2022-09-04T13:06:11.495Z,2.63
2022-09-04T13:08:48.100Z,2.20
2022-09-04T13:11:34.097Z,2.28
2022-09-04T13:14:21.060Z,2.40
2022-09-04T13:16:55.181Z,2.00
2022-09-04T13:19:31.132Z,2.28
2022-09-04T13:22:08.838Z,2.35
2022-09-04T13:24:44.798Z,2.75
2022-09-04T13:27:21.483Z,3.67
2022-09-04T13:30:07.358Z,4.25
2022-09-04T13:32:49.097Z,3.72
2022-09-04T13:35:41.043Z,4.05
2022-09-04T13:38:21.501Z,3.63
2022-09-04T13:41:05.137Z,3.53
2022-09-04T13:43:44.046Z,2.80
2022-09-04T13:46:15.368Z,3.30
2022-09-04T13:48:44.422Z,3.80
2022-09-04T13:51:15.053Z,3.28
2022-09-04T13:53:52.902Z,3.90
2022-09-04T13:56:30.432Z,5.20
2022-09-04T13:59:16.068Z,5.25
2022-09-04T14:01:47.981Z,4.95
2022-09-04T14:04:19.557Z,5.57
2022-09-04T14:06:49.324Z,5.43
2022-09-04T14:09:17.808Z,4.20
2022-09-04T14:12:10.535Z,3.60
2022-09-04T14:15:15.937Z,3.53
2022-09-04T14:17:49.721Z,3.58
2022-09-04T14:20:23.555Z,3.65
2022-09-04T14:23:02.144Z,4.03
2022-09-04T14:25:34.700Z,3.40
2022-09-04T14:28:07.959Z,3.58
2022-09-04T14:30:39.119Z,3.85
2022-09-04T14:33:21.837Z,4.03
2022-09-04T14:36:00.035Z,3.95
2022-09-04T14:39:03.989Z,3.90
2022-09-04T14:41:44.366Z,3.40
2022-09-04T14:44:20.485Z,4.60
2022-09-04T14:46:55.568Z,4.10
2022-09-04T14:49:31.925Z,4.82
2022-09-04T14:52:16.262Z,4.55
2022-09-04T14:54:46.742Z,4.22
2022-09-04T14:57:20.846Z,4.50
2022-09-04T15:00:00.444Z,4.78
2022-09-04T15:02:36.060Z,4.28
2022-09-04T15:05:17.110Z,4.15
2022-09-04T15:08:02.549Z,3.72
2022-09-04T15:10:36.076Z,3.53
2022-09-04T15:13:31.375Z,3.58
2022-09-04T15:16:10.654Z,4.07
2022-09-04T15:18:52.541Z,4.00
2022-09-04T15:21:24.236Z,4.65
2022-09-04T15:23:55.741Z,4.07
2022-09-04T15:26:31.050Z,4.15
2022-09-04T15:29:07.653Z,3.58
2022-09-04T15:31:51.342Z,3.50
2022-09-04T15:34:26.620Z,3.55
2022-09-04T15:36:57.891Z,3.95
2022-09-04T15:39:30.271Z,3.75
2022-09-04T15:41:58.731Z,3.40
2022-09-04T15:44:30.387Z,3.40
2022-09-04T15:47:07.148Z,3.58
2022-09-04T15:49:45.232Z,3.08
2022-09-04T15:52:49.712Z,3.38
2022-09-04T15:55:23.387Z,3.20
2022-09-04T15:57:58.611Z,3.33
2022-09-04T16:00:33.446Z,3.45
2022-09-04T16:03:07.106Z,3.60
2022-09-04T16:05:42.414Z,2.92
2022-09-04T16:08:25.472Z,3.10
2022-09-04T16:10:59.214Z,2.92
2022-09-04T16:13:58.471Z,2.88
2022-09-04T16:16:36.220Z,3.38
2022-09-04T16:19:13.676Z,3.15
2022-09-04T16:21:46.044Z,3.10
2022-09-04T16:24:17.708Z,2.55
2022-09-04T16:26:49.032Z,2.72
2022-09-04T16:29:28.488Z,2.50
2022-09-04T16:31:57.740Z,2.30
2022-09-04T16:34:27.089Z,2.30
2022-09-04T16:37:02.140Z,2.50
2022-09-04T16:39:43.110Z,2.47
2022-09-04T16:42:16.853Z,2.10
2022-09-04T16:44:46.518Z,2.15
2022-09-04T16:47:21.467Z,2.50
2022-09-04T16:49:53.482Z,2.38
2022-09-04T16:52:31.965Z,2.40
2022-09-04T16:55:10.585Z,2.60
2022-09-04T16:57:43.419Z,2.03
2022-09-04T17:00:13.722Z,1.95
2022-09-04T17:02:51.131Z,2.20
2022-09-04T17:05:30.304Z,2.20
2022-09-04T17:08:04.295Z,2.55
2022-09-04T17:10:36.876Z,2.13
2022-09-04T17:13:09.107Z,2.50
2022-09-04T17:15:53.916Z,2.30
2022-09-04T17:18:24.360Z,2.20
2022-09-04T17:25:01.639Z,2.22
2022-09-04T17:29:00.160Z,2.45
2022-09-04T17:29:11.932Z,2.30
2022-09-04T17:29:37.277Z,2.55
2022-09-04T17:32:32.168Z,2.70
2022-09-04T17:40:35.546Z,2.78
2022-09-04T17:40:48.712Z,2.33
2022-09-04T17:41:36.107Z,2.47
2022-09-04T17:44:07.040Z,2.10
2022-09-04T17:46:44.839Z,2.92
2022-09-04T17:49:30.697Z,2.17
2022-09-04T17:52:06.516Z,2.58
2022-09-04T17:54:39.618Z,2.50
2022-09-04T17:57:29.842Z,2.25
2022-09-04T18:00:11.236Z,2.30
2022-09-04T18:02:45.462Z,2.40
2022-09-04T18:05:21.626Z,2.60
2022-09-04T18:08:09.753Z,2.50
2022-09-04T18:10:50.003Z,2.17
2022-09-04T18:13:37.976Z,2.50
2022-09-04T18:16:34.145Z,1.97
2022-09-04T18:19:14.949Z,1.90
2022-09-04T18:21:44.814Z,2.47
2022-09-04T18:24:29.565Z,3.00
2022-09-04T18:27:04.781Z,2.40
2022-09-04T18:36:40.718Z,2.17
2022-09-04T18:37:12.079Z,2.20
2022-09-04T18:37:22.282Z,2.10
2022-09-04T18:38:28.415Z,1.70
2022-09-04T18:48:06.537Z,2.60
2022-09-04T18:50:25.015Z,2.40
2022-09-04T18:50:35.601Z,2.50
2022-09-04T18:50:45.624Z,3.03
2022-09-04T18:52:30.941Z,2.03
2022-09-04T18:55:02.088Z,1.93
2022-09-04T18:57:33.554Z,2.00
2022-09-04T19:00:09.544Z,1.93
2022-09-04T19:02:53.264Z,2.07
2022-09-04T19:05:26.146Z,1.90
2022-09-04T19:07:59.324Z,2.40
2022-09-04T19:10:28.578Z,2.60
2022-09-04T19:13:03.301Z,2.50
2022-09-04T19:15:51.302Z,2.60
2022-09-04T19:18:27.966Z,2.50
2022-09-04T19:21:14.696Z,2.67
2022-09-04T19:23:46.281Z,2.70
2022-09-04T19:26:25.239Z,3.23
2022-09-04T19:28:55.492Z,3.00
2022-09-04T19:31:34.035Z,3.33
2022-09-04T19:34:05.988Z,3.20
2022-09-04T19:36:44.133Z,3.27
2022-09-04T19:46:02.354Z,3.10
2022-09-04T19:46:04.739Z,3.03
2022-09-04T19:46:16.210Z,3.60
2022-09-04T19:48:13.143Z,3.07
2022-09-04T19:53:20.264Z,3.13
2022-09-04T19:53:42.786Z,3.40
2022-09-04T19:56:25.225Z,3.10
2022-09-04T19:58:54.590Z,3.07
2022-09-04T20:01:24.609Z,3.33
2022-09-04T20:03:57.796Z,3.03
2022-09-04T20:06:33.807Z,2.70
2022-09-04T20:09:09.001Z,3.43
2022-09-04T20:12:02.777Z,3.23
2022-09-04T20:14:35.800Z,3.10
2022-09-04T20:17:10.179Z,3.20
2022-09-04T20:19:40.903Z,3.43
2022-09-04T20:22:26.300Z,3.07
2022-09-04T20:25:11.206Z,3.73
2022-09-04T20:27:42.722Z,3.37
2022-09-04T20:30:14.507Z,2.60
2022-09-04T20:32:55.928Z,3.77
2022-09-04T20:35:32.954Z,2.97
2022-09-04T20:38:23.489Z,3.60
2022-09-04T20:40:56.800Z,3.87
2022-09-04T20:43:31.781Z,3.30
2022-09-04T20:50:20.005Z,3.13
2022-09-04T20:52:58.064Z,4.00
2022-09-04T20:52:59.316Z,4.03
2022-09-04T20:55:01.508Z,4.43
2022-09-04T21:03:12.592Z,3.70
2022-09-04T21:03:19.028Z,4.00
2022-09-04T21:03:35.049Z,4.33
2022-09-04T21:06:32.468Z,4.10
2022-09-04T21:09:12.793Z,4.27
2022-09-04T21:11:42.496Z,3.80
2022-09-04T21:14:44.505Z,4.27
2022-09-04T21:17:35.887Z,3.83
2022-09-04T21:21:00.318Z,4.17
2022-09-04T21:23:56.549Z,4.63
2022-09-04T21:26:42.067Z,4.03
2022-09-04T21:29:27.685Z,3.70
2022-09-04T21:32:28.008Z,4.00
2022-09-04T21:35:16.761Z,4.10
2022-09-04T21:37:48.368Z,3.97
2022-09-04T21:40:50.983Z,4.00
2022-09-04T21:43:49.361Z,3.83
2022-09-04T21:46:29.039Z,4.37
2022-09-04T21:49:09.786Z,4.37
2022-09-04T21:51:57.273Z,4.67
2022-09-04T21:56:42.123Z,4.33
2022-09-04T22:02:28.188Z,4.33
2022-09-04T22:02:40.459Z,4.37
2022-09-04T22:03:53.674Z,4.23
2022-09-04T22:07:57.684Z,4.70
2022-09-04T22:13:29.246Z,4.90
2022-09-04T22:13:39.071Z,4.50
2022-09-04T22:15:47.185Z,4.33
2022-09-04T22:18:27.544Z,4.50
2022-09-04T22:21:02.296Z,4.40
2022-09-04T22:24:04.586Z,4.40
2022-09-04T22:26:50.834Z,4.13
2022-09-04T22:29:37.556Z,4.63
2022-09-04T22:32:25.703Z,4.13
2022-09-04T22:35:36.421Z,4.73
2022-09-04T22:38:25.015Z,4.47
2022-09-04T22:41:00.636Z,4.43
2022-09-04T22:43:29.399Z,4.33
2022-09-04T22:46:34.965Z,4.23
2022-09-04T22:49:23.499Z,4.73
2022-09-04T22:52:36.927Z,3.83
2022-09-04T22:55:36.597Z,3.73
2022-09-04T22:58:17.504Z,4.50
2022-09-04T23:01:09.325Z,4.23
2022-09-04T23:03:46.618Z,4.17
2022-09-04T23:09:45.963Z,4.27
2022-09-04T23:13:45.086Z,4.40
2022-09-04T23:14:00.282Z,4.33
2022-09-04T23:15:42.292Z,4.07
2022-09-04T23:20:46.805Z,3.47
2022-09-04T23:26:45.851Z,3.27
2022-09-04T23:26:48.841Z,3.63
2022-09-04T23:27:30.710Z,3.60
2022-09-04T23:30:13.982Z,3.47
2022-09-04T23:33:07.570Z,3.70
2022-09-04T23:35:41.488Z,3.87
2022-09-04T23:38:30.488Z,4.30
2022-09-04T23:41:00.441Z,4.10
2022-09-04T23:44:00.633Z,4.67
2022-09-04T23:46:45.664Z,4.90
2022-09-04T23:49:49.474Z,4.97
2022-09-04T23:52:26.519Z,5.07
2022-09-04T23:55:06.954Z,5.57
2022-09-04T23:57:40.620Z,5.80
